createdAt,value
2023-03-06T00:06:33.832Z,7.00
2023-03-06T00:13:53.330Z,7.85
2023-03-06T00:21:12.956Z,6.85
2023-03-06T00:28:32.722Z,7.43
2023-03-06T00:35:50.948Z,7.35
2023-03-06T00:43:10.638Z,7.70
2023-03-06T00:50:28.874Z,9.05
2023-03-06T00:57:47.116Z,8.50
2023-03-06T01:05:07.955Z,8.70
2023-03-06T01:12:26.281Z,7.63
2023-03-06T01:19:44.546Z,6.93
2023-03-06T01:27:07.066Z,7.07
2023-03-06T01:34:25.345Z,7.20
2023-03-06T01:41:43.517Z,7.25
2023-03-06T01:49:06.075Z,7.25
2023-03-06T01:56:25.183Z,6.03
2023-03-06T02:03:44.022Z,8.40
2023-03-06T02:11:14.341Z,8.57
2023-03-06T02:18:32.736Z,9.95
2023-03-06T02:25:53.603Z,8.88
2023-03-06T02:33:13.628Z,9.32
2023-03-06T02:40:31.876Z,10.52
2023-03-06T02:47:51.697Z,9.52
2023-03-06T02:55:10.628Z,9.30
2023-03-06T03:02:28.933Z,9.20
2023-03-06T03:09:48.769Z,8.05
2023-03-06T03:17:07.862Z,9.48
2023-03-06T03:24:26.558Z,9.43
2023-03-06T03:31:47.504Z,11.13
2023-03-06T03:39:06.324Z,10.73
2023-03-06T03:46:24.726Z,10.27
2023-03-06T03:53:46.303Z,11.48
2023-03-06T04:01:07.518Z,11.25
2023-03-06T04:08:27.444Z,13.02
2023-03-06T04:15:47.386Z,14.10
2023-03-06T04:23:05.762Z,13.05
2023-03-06T04:30:27.506Z,15.07
2023-03-06T04:37:47.563Z,18.65
2023-03-06T04:45:22.910Z,22.27
2023-03-06T04:52:41.757Z,20.92
2023-03-06T05:00:11.173Z,22.85
2023-03-06T05:07:29.724Z,17.00
2023-03-06T05:14:48.274Z,17.83
2023-03-06T05:22:08.063Z,17.92
2023-03-06T05:29:26.342Z,14.77
2023-03-06T05:36:44.885Z,15.27
2023-03-06T05:44:04.597Z,22.80
2023-03-06T05:51:26.797Z,19.08
2023-03-06T05:58:45.213Z,17.03
2023-03-06T06:06:06.964Z,14.95
2023-03-06T06:13:25.312Z,14.52
2023-03-06T06:20:43.437Z,11.05
2023-03-06T06:28:03.532Z,14.00
2023-03-06T06:35:21.876Z,13.43
2023-03-06T06:42:40.603Z,11.25
2023-03-06T06:50:03.211Z,11.50
2023-03-06T06:57:22.034Z,11.27
2023-03-06T07:04:52.304Z,11.77
2023-03-06T07:12:20.151Z,11.25
2023-03-06T07:19:39.323Z,15.27
2023-03-06T07:26:57.789Z,8.73
2023-03-06T07:34:17.475Z,12.60
2023-03-06T07:41:35.968Z,15.32
2023-03-06T07:48:54.380Z,15.48
2023-03-06T07:56:14.638Z,13.68
2023-03-06T08:03:33.164Z,12.85
2023-03-06T08:10:51.420Z,11.55
2023-03-06T08:18:11.160Z,13.27
2023-03-06T08:25:30.545Z,13.43
2023-03-06T08:32:48.821Z,10.73
2023-03-06T08:40:10.404Z,12.70
2023-03-06T08:47:28.617Z,12.73
2023-03-06T08:54:47.018Z,12.32
2023-03-06T09:02:07.983Z,12.85
2023-03-06T09:09:26.408Z,12.32
2023-03-06T09:16:44.569Z,9.98
2023-03-06T09:24:04.219Z,12.02
2023-03-06T09:31:22.535Z,9.02
2023-03-06T09:38:40.770Z,11.57
2023-03-06T09:46:00.815Z,11.32
2023-03-06T09:53:39.487Z,11.82
2023-03-06T10:01:02.895Z,10.38
2023-03-06T10:08:28.636Z,12.57
2023-03-06T10:15:47.716Z,11.45
2023-03-06T10:23:33.980Z,12.43
2023-03-06T10:30:56.758Z,11.32
2023-03-06T10:38:20.952Z,8.37
2023-03-06T10:45:50.410Z,10.55
2023-03-06T10:53:21.479Z,11.27
2023-03-06T11:00:39.810Z,10.90
2023-03-06T11:08:00.744Z,10.02
2023-03-06T11:15:22.441Z,10.30
2023-03-06T11:22:41.379Z,12.50
2023-03-06T11:30:01.786Z,10.65
2023-03-06T11:37:38.678Z,10.80
2023-03-06T11:45:10.203Z,9.88
2023-03-06T11:52:31.025Z,10.55
2023-03-06T12:00:11.458Z,9.32
2023-03-06T12:07:32.207Z,9.55
2023-03-06T12:15:00.837Z,8.73
2023-03-06T12:22:53.408Z,10.43
2023-03-06T12:30:33.537Z,13.00
2023-03-06T12:38:01.624Z,10.32
2023-03-06T12:45:31.580Z,9.50
2023-03-06T12:52:50.040Z,9.93
2023-03-06T13:00:17.268Z,10.80
2023-03-06T13:07:49.400Z,13.13
2023-03-06T13:15:32.347Z,14.77
2023-03-06T13:22:50.717Z,14.00
2023-03-06T13:30:27.220Z,14.20
2023-03-06T13:37:52.382Z,17.35
2023-03-06T13:45:16.195Z,15.35
2023-03-06T13:52:41.373Z,16.20
2023-03-06T14:00:27.082Z,14.57
2023-03-06T14:07:47.227Z,13.93
2023-03-06T14:15:12.531Z,11.45
2023-03-06T14:22:31.276Z,13.32
2023-03-06T14:29:50.796Z,13.10
2023-03-06T14:37:21.199Z,14.43
2023-03-06T14:44:39.323Z,14.77
2023-03-06T14:52:00.693Z,15.00
2023-03-06T14:59:22.478Z,14.30
2023-03-06T15:06:41.885Z,13.20
2023-03-06T15:14:06.025Z,13.18
2023-03-06T15:21:26.710Z,13.95
2023-03-06T15:28:45.003Z,13.57
2023-03-06T15:36:06.414Z,14.50
2023-03-06T15:43:24.767Z,14.60
2023-03-06T15:50:43.011Z,16.63
2023-03-06T15:58:03.322Z,40.08
2023-03-06T16:05:23.009Z,18.33
2023-03-06T16:12:43.614Z,16.42
2023-03-06T16:20:04.072Z,16.98
2023-03-06T16:27:25.799Z,16.67
2023-03-06T16:34:43.934Z,16.98
2023-03-06T16:42:03.679Z,18.17
2023-03-06T16:49:23.700Z,19.17
2023-03-06T16:56:41.887Z,19.38
2023-03-06T17:04:01.621Z,20.15
2023-03-06T17:11:20.798Z,22.13
2023-03-06T17:18:38.933Z,22.27
2023-03-06T17:26:05.622Z,22.05
2023-03-06T17:33:24.047Z,21.77
2023-03-06T17:40:42.267Z,25.52
2023-03-06T17:48:01.889Z,28.88
2023-03-06T17:55:20.085Z,30.30
2023-03-06T18:02:38.327Z,27.70
2023-03-06T18:09:58.040Z,21.55
2023-03-06T18:17:16.359Z,21.33
2023-03-06T18:24:35.678Z,19.63
2023-03-06T18:31:56.939Z,25.67
2023-03-06T18:39:15.940Z,26.05
2023-03-06T18:46:35.862Z,21.23
2023-03-06T18:53:57.832Z,20.80
2023-03-06T19:01:16.638Z,22.65
2023-03-06T19:08:36.208Z,26.10
2023-03-06T19:15:57.239Z,29.95
2023-03-06T19:23:15.439Z,25.83
2023-03-06T19:30:33.795Z,32.53
2023-03-06T19:37:53.542Z,28.95
2023-03-06T19:45:12.659Z,24.88
2023-03-06T19:52:31.040Z,26.55
2023-03-06T19:59:52.397Z,29.13
2023-03-06T20:07:10.721Z,39.08
2023-03-06T20:14:28.995Z,29.05
2023-03-06T20:21:48.953Z,29.50
2023-03-06T20:29:07.480Z,27.08
2023-03-06T20:36:29.013Z,24.38
2023-03-06T20:43:48.940Z,24.45
2023-03-06T20:51:11.041Z,26.33
2023-03-06T20:58:31.628Z,30.10
2023-03-06T21:05:51.333Z,25.17
2023-03-06T21:13:09.748Z,23.65
2023-03-06T21:20:27.942Z,22.13
2023-03-06T21:27:47.874Z,24.73
2023-03-06T21:35:06.751Z,23.02
2023-03-06T21:42:25.041Z,23.38
2023-03-06T21:49:44.764Z,24.75
2023-03-06T21:57:03.186Z,26.65
2023-03-06T22:04:21.400Z,27.33
2023-03-06T22:11:42.951Z,24.02
2023-03-06T22:19:01.170Z,25.00
2023-03-06T22:26:19.394Z,26.40
2023-03-06T22:33:39.476Z,27.35
2023-03-06T22:40:58.078Z,31.02
2023-03-06T22:48:17.017Z,30.98
2023-03-06T22:55:37.342Z,29.20
2023-03-06T23:02:56.016Z,27.20
2023-03-06T23:10:14.178Z,30.63
2023-03-06T23:17:53.684Z,29.25
2023-03-06T23:25:30.285Z,29.65
2023-03-06T23:32:49.780Z,30.15
2023-03-06T23:40:11.318Z,29.95
2023-03-06T23:47:32.617Z,29.48
2023-03-06T23:54:50.948Z,31.17
